sensor_id;sensor_type;location;lat;lon;timestamp;pressure;altitude;pressure_sealevel;temperature;humidity
66196;BME280;53000;45.182;5.736;2023-06-10T00:00:45;98822.69;;;22.63;66.00
66196;BME280;53000;45.182;5.736;2023-06-10T00:03:11;98814.66;;;22.61;66.31
66196;BME280;53000;45.182;5.736;2023-06-10T00:05:37;98822.13;;;22.61;66.41
66196;BME280;53000;45.182;5.736;2023-06-10T00:08:06;98813.84;;;22.61;66.21
66196;BME280;53000;45.182;5.736;2023-06-10T00:10:37;98809.97;;;22.62;66.00
66196;BME280;53000;45.182;5.736;2023-06-10T00:13:06;98815.47;;;22.57;65.70
66196;BME280;53000;45.182;5.736;2023-06-10T00:15:36;98817.31;;;22.51;66.74
66196;BME280;53000;45.182;5.736;2023-06-10T00:18:02;98804.88;;;22.49;65.73
66196;BME280;53000;45.182;5.736;2023-06-10T00:20:29;98817.03;;;22.48;65.91
66196;BME280;53000;45.182;5.736;2023-06-10T00:22:54;98814.25;;;22.48;65.95
66196;BME280;53000;45.182;5.736;2023-06-10T00:25:19;98812.06;;;22.50;65.80
66196;BME280;53000;45.182;5.736;2023-06-10T00:27:45;98813.22;;;22.54;65.66
66196;BME280;53000;45.182;5.736;2023-06-10T00:30:11;98810.75;;;22.57;65.51
66196;BME280;53000;45.182;5.736;2023-06-10T00:32:37;98804.41;;;22.57;65.46
66196;BME280;53000;45.182;5.736;2023-06-10T00:35:03;98807.75;;;22.59;65.14
66196;BME280;53000;45.182;5.736;2023-06-10T00:37:29;98806.06;;;22.58;65.01
66196;BME280;53000;45.182;5.736;2023-06-10T00:39:55;98802.00;;;22.60;64.52
66196;BME280;53000;45.182;5.736;2023-06-10T00:42:20;98797.22;;;22.56;64.37
66196;BME280;53000;45.182;5.736;2023-06-10T00:44:47;98805.63;;;22.39;65.45
66196;BME280;53000;45.182;5.736;2023-06-10T00:47:13;98800.66;;;22.19;65.55
66196;BME280;53000;45.182;5.736;2023-06-10T00:49:38;98798.53;;;22.04;65.56
66196;BME280;53000;45.182;5.736;2023-06-10T00:52:06;98804.75;;;21.94;65.81
66196;BME280;53000;45.182;5.736;2023-06-10T00:54:32;98797.84;;;21.92;66.54
66196;BME280;53000;45.182;5.736;2023-06-10T00:57:00;98807.94;;;21.86;66.57
66196;BME280;53000;45.182;5.736;2023-06-10T00:59:26;98807.63;;;21.82;66.51
66196;BME280;53000;45.182;5.736;2023-06-10T01:01:52;98800.44;;;21.81;66.76
66196;BME280;53000;45.182;5.736;2023-06-10T01:04:17;98804.84;;;21.82;66.77
66196;BME280;53000;45.182;5.736;2023-06-10T01:07:10;98806.53;;;21.83;66.37
66196;BME280;53000;45.182;5.736;2023-06-10T01:10:24;98808.78;;;21.87;66.68
66196;BME280;53000;45.182;5.736;2023-06-10T01:13:11;98798.91;;;21.91;67.09
66196;BME280;53000;45.182;5.736;2023-06-10T01:15:37;98808.88;;;21.92;67.05
66196;BME280;53000;45.182;5.736;2023-06-10T01:18:04;98810.50;;;21.93;66.89
66196;BME280;53000;45.182;5.736;2023-06-10T01:20:34;98803.94;;;21.94;66.74
66196;BME280;53000;45.182;5.736;2023-06-10T01:23:02;98811.34;;;21.93;66.46
66196;BME280;53000;45.182;5.736;2023-06-10T01:25:29;98813.03;;;21.94;66.31
66196;BME280;53000;45.182;5.736;2023-06-10T01:28:02;98816.03;;;21.93;66.88
66196;BME280;53000;45.182;5.736;2023-06-10T01:30:36;98808.28;;;21.90;67.93
66196;BME280;53000;45.182;5.736;2023-06-10T01:33:03;98822.88;;;21.90;67.39
66196;BME280;53000;45.182;5.736;2023-06-10T01:35:31;98820.91;;;21.85;66.41
66196;BME280;53000;45.182;5.736;2023-06-10T01:37:58;98815.25;;;21.75;66.65
66196;BME280;53000;45.182;5.736;2023-06-10T01:40:23;98811.06;;;21.73;66.20
66196;BME280;53000;45.182;5.736;2023-06-10T01:42:50;98820.75;;;21.75;66.48
66196;BME280;53000;45.182;5.736;2023-06-10T01:45:17;98825.72;;;21.78;66.48
66196;BME280;53000;45.182;5.736;2023-06-10T01:47:42;98830.41;;;21.78;66.20
66196;BME280;53000;45.182;5.736;2023-06-10T01:50:08;98834.28;;;21.77;65.97
66196;BME280;53000;45.182;5.736;2023-06-10T01:52:33;98829.78;;;21.71;65.55
66196;BME280;53000;45.182;5.736;2023-06-10T01:54:59;98842.38;;;21.67;65.89
66196;BME280;53000;45.182;5.736;2023-06-10T01:57:24;98837.06;;;21.60;65.86
66196;BME280;53000;45.182;5.736;2023-06-10T01:59:49;98837.88;;;21.60;65.75
66196;BME280;53000;45.182;5.736;2023-06-10T02:02:15;98840.88;;;21.59;65.61
66196;BME280;53000;45.182;5.736;2023-06-10T02:04:40;98843.31;;;21.55;66.28
66196;BME280;53000;45.182;5.736;2023-06-10T02:07:06;98846.31;;;21.54;66.56
66196;BME280;53000;45.182;5.736;2023-06-10T02:09:31;98839.13;;;21.53;66.35
66196;BME280;53000;45.182;5.736;2023-06-10T02:12:00;98848.06;;;21.60;66.42
66196;BME280;53000;45.182;5.736;2023-06-10T02:14:25;98845.91;;;21.62;66.47
66196;BME280;53000;45.182;5.736;2023-06-10T02:16:50;98847.31;;;21.64;66.07
66196;BME280;53000;45.182;5.736;2023-06-10T02:19:16;98850.41;;;21.68;66.21
66196;BME280;53000;45.182;5.736;2023-06-10T02:21:42;98850.66;;;21.67;66.30
66196;BME280;53000;45.182;5.736;2023-06-10T02:24:07;98850.06;;;21.64;66.59
66196;BME280;53000;45.182;5.736;2023-06-10T02:26:33;98848.47;;;21.69;66.34
66196;BME280;53000;45.182;5.736;2023-06-10T02:28:58;98860.06;;;21.71;66.54
66196;BME280;53000;45.182;5.736;2023-06-10T02:31:23;98855.97;;;21.73;67.25
66196;BME280;53000;45.182;5.736;2023-06-10T02:33:50;98861.50;;;21.73;67.13
66196;BME280;53000;45.182;5.736;2023-06-10T02:36:16;98854.28;;;21.72;66.62
66196;BME280;53000;45.182;5.736;2023-06-10T02:38:41;98854.28;;;21.72;66.62
66196;BME280;53000;45.182;5.736;2023-06-10T02:41:07;98847.97;;;21.72;66.93
66196;BME280;53000;45.182;5.736;2023-06-10T02:43:32;98849.66;;;21.73;67.01
66196;BME280;53000;45.182;5.736;2023-06-10T02:45:58;98857.31;;;21.71;66.41
66196;BME280;53000;45.182;5.736;2023-06-10T02:48:24;98851.47;;;21.67;66.44
66196;BME280;53000;45.182;5.736;2023-06-10T02:50:49;98852.00;;;21.64;66.92
66196;BME280;53000;45.182;5.736;2023-06-10T02:53:15;98849.72;;;21.61;66.73
66196;BME280;53000;45.182;5.736;2023-06-10T02:55:40;98849.66;;;21.56;66.52
66196;BME280;53000;45.182;5.736;2023-06-10T02:58:06;98844.31;;;21.49;67.08
66196;BME280;53000;45.182;5.736;2023-06-10T03:00:32;98853.94;;;21.47;67.14
66196;BME280;53000;45.182;5.736;2023-06-10T03:02:58;98857.75;;;21.46;66.96
66196;BME280;53000;45.182;5.736;2023-06-10T03:05:28;98865.44;;;21.43;67.38
66196;BME280;53000;45.182;5.736;2023-06-10T03:07:53;98855.72;;;21.41;67.45
66196;BME280;53000;45.182;5.736;2023-06-10T03:10:19;98855.50;;;21.42;67.35
66196;BME280;53000;45.182;5.736;2023-06-10T03:12:44;98862.81;;;21.37;67.31
66196;BME280;53000;45.182;5.736;2023-06-10T03:15:09;98861.13;;;21.36;66.78
66196;BME280;53000;45.182;5.736;2023-06-10T03:17:35;98862.81;;;21.37;66.69
66196;BME280;53000;45.182;5.736;2023-06-10T03:20:00;98858.97;;;21.38;67.10
66196;BME280;53000;45.182;5.736;2023-06-10T03:22:26;98857.88;;;21.39;66.95
66196;BME280;53000;45.182;5.736;2023-06-10T03:24:51;98863.16;;;21.40;67.17
66196;BME280;53000;45.182;5.736;2023-06-10T03:27:16;98864.22;;;21.39;67.13
66196;BME280;53000;45.182;5.736;2023-06-10T03:29:41;98871.41;;;21.40;66.85
66196;BME280;53000;45.182;5.736;2023-06-10T03:32:07;98867.50;;;21.36;67.18
66196;BME280;53000;45.182;5.736;2023-06-10T03:34:32;98866.06;;;21.34;67.03
66196;BME280;53000;45.182;5.736;2023-06-10T03:36:59;98872.13;;;21.36;66.74
66196;BME280;53000;45.182;5.736;2023-06-10T03:39:25;98874.00;;;21.30;66.55
66196;BME280;53000;45.182;5.736;2023-06-10T03:41:54;98866.50;;;21.26;66.90
66196;BME280;53000;45.182;5.736;2023-06-10T03:44:19;98867.38;;;21.14;66.81
66196;BME280;53000;45.182;5.736;2023-06-10T03:46:44;98867.13;;;21.16;67.03
66196;BME280;53000;45.182;5.736;2023-06-10T03:49:10;98870.22;;;21.19;67.45
66196;BME280;53000;45.182;5.736;2023-06-10T03:51:36;98856.22;;;21.21;67.00
66196;BME280;53000;45.182;5.736;2023-06-10T03:54:02;98852.78;;;21.14;67.00
66196;BME280;53000;45.182;5.736;2023-06-10T03:56:28;98869.25;;;21.26;66.88
66196;BME280;53000;45.182;5.736;2023-06-10T03:58:54;98863.31;;;21.17;67.48
66196;BME280;53000;45.182;5.736;2023-06-10T04:01:20;98872.16;;;21.19;67.34
66196;BME280;53000;45.182;5.736;2023-06-10T04:03:46;98863.31;;;21.17;67.08
66196;BME280;53000;45.182;5.736;2023-06-10T04:06:14;98862.47;;;21.16;66.75
66196;BME280;53000;45.182;5.736;2023-06-10T04:08:40;98871.88;;;21.20;66.66
66196;BME280;53000;45.182;5.736;2023-06-10T04:11:05;98869.41;;;21.19;66.70
66196;BME280;53000;45.182;5.736;2023-06-10T04:13:31;98866.16;;;21.22;66.42
66196;BME280;53000;45.182;5.736;2023-06-10T04:15:56;98873.66;;;21.27;66.54
66196;BME280;53000;45.182;5.736;2023-06-10T04:18:21;98878.91;;;21.28;66.76
66196;BME280;53000;45.182;5.736;2023-06-10T04:20:47;98878.41;;;21.31;66.80
66196;BME280;53000;45.182;5.736;2023-06-10T04:23:12;98870.72;;;21.33;66.60
66196;BME280;53000;45.182;5.736;2023-06-10T04:25:38;98869.38;;;21.36;66.48
66196;BME280;53000;45.182;5.736;2023-06-10T04:28:03;98870.84;;;21.38;66.57
66196;BME280;53000;45.182;5.736;2023-06-10T04:30:29;98875.63;;;21.43;66.32
66196;BME280;53000;45.182;5.736;2023-06-10T04:32:57;98869.59;;;21.46;66.28
66196;BME280;53000;45.182;5.736;2023-06-10T04:35:23;98877.63;;;21.48;66.16
66196;BME280;53000;45.182;5.736;2023-06-10T04:37:48;98881.19;;;21.48;66.42
66196;BME280;53000;45.182;5.736;2023-06-10T04:40:13;98883.94;;;21.48;66.53
66196;BME280;53000;45.182;5.736;2023-06-10T04:42:41;98884.22;;;21.47;66.75
66196;BME280;53000;45.182;5.736;2023-06-10T04:45:07;98880.28;;;21.42;66.69
66196;BME280;53000;45.182;5.736;2023-06-10T04:47:32;98884.31;;;21.40;66.54
66196;BME280;53000;45.182;5.736;2023-06-10T04:50:01;98878.50;;;21.36;66.88
66196;BME280;53000;45.182;5.736;2023-06-10T04:52:27;98889.25;;;21.38;66.73
66196;BME280;53000;45.182;5.736;2023-06-10T04:54:53;98891.31;;;21.42;66.43
66196;BME280;53000;45.182;5.736;2023-06-10T04:57:19;98894.38;;;21.46;66.33
66196;BME280;53000;45.182;5.736;2023-06-10T04:59:45;98892.22;;;21.48;66.38
66196;BME280;53000;45.182;5.736;2023-06-10T05:02:10;98890.28;;;21.49;66.07
66196;BME280;53000;45.182;5.736;2023-06-10T05:04:36;98892.78;;;21.50;66.21
66196;BME280;53000;45.182;5.736;2023-06-10T05:07:01;98888.81;;;21.58;66.11
66196;BME280;53000;45.182;5.736;2023-06-10T05:09:26;98891.56;;;21.58;65.72
66196;BME280;53000;45.182;5.736;2023-06-10T05:11:52;98890.22;;;21.60;66.01
66196;BME280;53000;45.182;5.736;2023-06-10T05:14:19;98885.28;;;21.62;65.75
66196;BME280;53000;45.182;5.736;2023-06-10T05:16:46;98890.88;;;21.68;65.43
66196;BME280;53000;45.182;5.736;2023-06-10T05:19:11;98894.47;;;21.68;65.90
66196;BME280;53000;45.182;5.736;2023-06-10T05:21:37;98893.44;;;21.74;66.26
66196;BME280;53000;45.182;5.736;2023-06-10T05:24:02;98885.53;;;21.78;66.01
66196;BME280;53000;45.182;5.736;2023-06-10T05:26:28;98892.19;;;21.82;65.36
66196;BME280;53000;45.182;5.736;2023-06-10T05:28:54;98882.81;;;21.83;65.52
66196;BME280;53000;45.182;5.736;2023-06-10T05:31:19;98882.91;;;21.88;65.45
66196;BME280;53000;45.182;5.736;2023-06-10T05:33:45;98878.19;;;21.83;65.93
66196;BME280;53000;45.182;5.736;2023-06-10T05:36:10;98880.94;;;21.83;66.31
66196;BME280;53000;45.182;5.736;2023-06-10T05:38:35;98881.50;;;21.85;65.84
66196;BME280;53000;45.182;5.736;2023-06-10T05:41:01;98884.84;;;21.88;65.73
66196;BME280;53000;45.182;5.736;2023-06-10T05:43:26;98875.16;;;21.85;65.88
66196;BME280;53000;45.182;5.736;2023-06-10T05:45:52;98881.75;;;21.84;67.04
66196;BME280;53000;45.182;5.736;2023-06-10T05:48:17;98884.16;;;21.80;66.51
66196;BME280;53000;45.182;5.736;2023-06-10T05:50:45;98885.75;;;21.76;66.94
66196;BME280;53000;45.182;5.736;2023-06-10T05:53:13;98879.94;;;21.73;66.90
66196;BME280;53000;45.182;5.736;2023-06-10T05:55:42;98887.28;;;21.67;67.76
66196;BME280;53000;45.182;5.736;2023-06-10T05:58:08;98884.53;;;21.67;66.97
66196;BME280;53000;45.182;5.736;2023-06-10T06:00:33;98886.94;;;21.63;67.16
66196;BME280;53000;45.182;5.736;2023-06-10T06:02:59;98881.38;;;21.58;66.60
66196;BME280;53000;45.182;5.736;2023-06-10T06:05:25;98873.28;;;21.52;66.93
66196;BME280;53000;45.182;5.736;2023-06-10T06:07:50;98877.78;;;21.58;66.63
66196;BME280;53000;45.182;5.736;2023-06-10T06:10:17;98885.28;;;21.62;66.59
66196;BME280;53000;45.182;5.736;2023-06-10T06:12:43;98882.94;;;21.71;66.68
66196;BME280;53000;45.182;5.736;2023-06-10T06:15:09;98880.00;;;21.78;66.51
66196;BME280;53000;45.182;5.736;2023-06-10T06:17:35;98876.66;;;21.76;66.22
66196;BME280;53000;45.182;5.736;2023-06-10T06:20:01;98881.19;;;21.82;66.17
66196;BME280;53000;45.182;5.736;2023-06-10T06:22:26;98881.50;;;21.85;66.38
66196;BME280;53000;45.182;5.736;2023-06-10T06:24:52;98884.75;;;21.82;66.50
66196;BME280;53000;45.182;5.736;2023-06-10T06:27:17;98878.34;;;21.94;66.40
66196;BME280;53000;45.182;5.736;2023-06-10T06:29:42;98878.16;;;22.00;65.76
66196;BME280;53000;45.182;5.736;2023-06-10T06:32:08;98885.13;;;22.08;66.02
66196;BME280;53000;45.182;5.736;2023-06-10T06:34:33;98879.94;;;22.12;65.54
66196;BME280;53000;45.182;5.736;2023-06-10T06:36:59;98886.38;;;22.17;65.52
66196;BME280;53000;45.182;5.736;2023-06-10T06:39:24;98883.63;;;22.17;65.01
66196;BME280;53000;45.182;5.736;2023-06-10T06:41:49;98881.41;;;22.19;65.26
66196;BME280;53000;45.182;5.736;2023-06-10T06:44:15;98886.78;;;22.26;65.70
66196;BME280;53000;45.182;5.736;2023-06-10T06:46:40;98886.31;;;22.34;65.04
66196;BME280;53000;45.182;5.736;2023-06-10T06:49:05;98888.91;;;22.41;64.94
66196;BME280;53000;45.182;5.736;2023-06-10T06:51:31;98886.47;;;22.44;64.73
66196;BME280;53000;45.182;5.736;2023-06-10T06:53:57;98885.97;;;22.48;65.45
66196;BME280;53000;45.182;5.736;2023-06-10T06:56:24;98886.00;;;22.53;65.60
66196;BME280;53000;45.182;5.736;2023-06-10T06:58:49;98884.75;;;22.60;65.60
66196;BME280;53000;45.182;5.736;2023-06-10T07:01:15;98890.63;;;22.69;64.73
66196;BME280;53000;45.182;5.736;2023-06-10T07:03:41;98882.72;;;22.78;64.69
66196;BME280;53000;45.182;5.736;2023-06-10T07:06:06;98884.25;;;22.91;64.17
66196;BME280;53000;45.182;5.736;2023-06-10T07:08:31;98881.09;;;23.04;64.45
66196;BME280;53000;45.182;5.736;2023-06-10T07:10:57;98873.16;;;23.13;63.51
66196;BME280;53000;45.182;5.736;2023-06-10T07:13:22;98882.56;;;23.12;63.36
66196;BME280;53000;45.182;5.736;2023-06-10T07:15:47;98874.56;;;23.15;63.15
66196;BME280;53000;45.182;5.736;2023-06-10T07:18:15;98875.47;;;23.21;63.47
66196;BME280;53000;45.182;5.736;2023-06-10T07:20:40;98880.72;;;23.22;62.43
66196;BME280;53000;45.182;5.736;2023-06-10T07:23:06;98871.34;;;23.23;61.77
66196;BME280;53000;45.182;5.736;2023-06-10T07:25:31;98877.22;;;23.32;61.57
66196;BME280;53000;45.182;5.736;2023-06-10T07:27:57;98879.44;;;23.67;61.88
66196;BME280;53000;45.182;5.736;2023-06-10T07:30:22;98880.63;;;24.82;60.60
66196;BME280;53000;45.182;5.736;2023-06-10T07:32:47;98882.38;;;26.01;54.78
66196;BME280;53000;45.182;5.736;2023-06-10T07:35:13;98879.72;;;26.56;56.22
66196;BME280;53000;45.182;5.736;2023-06-10T07:37:39;98876.50;;;27.33;51.78
66196;BME280;53000;45.182;5.736;2023-06-10T07:40:04;98878.84;;;28.38;52.53
66196;BME280;53000;45.182;5.736;2023-06-10T07:42:33;98873.75;;;28.88;52.45
66196;BME280;53000;45.182;5.736;2023-06-10T07:44:59;98874.50;;;28.74;51.13
66196;BME280;53000;45.182;5.736;2023-06-10T07:47:24;98875.19;;;28.66;49.27
66196;BME280;53000;45.182;5.736;2023-06-10T07:49:50;98879.19;;;28.79;50.72
66196;BME280;53000;45.182;5.736;2023-06-10T07:52:15;98879.38;;;29.26;50.32
66196;BME280;53000;45.182;5.736;2023-06-10T07:54:40;98868.25;;;30.05;48.43
66196;BME280;53000;45.182;5.736;2023-06-10T07:57:06;98872.25;;;31.10;46.61
66196;BME280;53000;45.182;5.736;2023-06-10T07:59:34;98864.63;;;32.14;41.17
66196;BME280;53000;45.182;5.736;2023-06-10T08:02:00;98867.19;;;32.99;40.04
66196;BME280;53000;45.182;5.736;2023-06-10T08:04:25;98871.78;;;33.83;42.84
66196;BME280;53000;45.182;5.736;2023-06-10T08:06:50;98860.97;;;34.49;38.09
66196;BME280;53000;45.182;5.736;2023-06-10T08:09:16;98874.34;;;35.12;40.23
66196;BME280;53000;45.182;5.736;2023-06-10T08:11:43;98864.25;;;35.74;39.03
66196;BME280;53000;45.182;5.736;2023-06-10T08:14:09;98863.19;;;36.36;37.87
66196;BME280;53000;45.182;5.736;2023-06-10T08:16:34;98867.69;;;36.74;35.08
66196;BME280;53000;45.182;5.736;2023-06-10T08:18:59;98861.16;;;36.98;35.34
66196;BME280;53000;45.182;5.736;2023-06-10T08:21:25;98857.75;;;37.17;36.83
66196;BME280;53000;45.182;5.736;2023-06-10T08:23:52;98858.00;;;37.40;34.85
66196;BME280;53000;45.182;5.736;2023-06-10T08:26:19;98853.44;;;37.64;34.68
66196;BME280;53000;45.182;5.736;2023-06-10T08:28:44;98859.31;;;37.87;35.02
66196;BME280;53000;45.182;5.736;2023-06-10T08:31:10;98864.88;;;38.12;34.76
66196;BME280;53000;45.182;5.736;2023-06-10T08:33:35;98850.63;;;38.24;33.99
66196;BME280;53000;45.182;5.736;2023-06-10T08:36:01;98855.00;;;38.21;26.99
66196;BME280;53000;45.182;5.736;2023-06-10T08:38:26;98855.69;;;38.02;33.07
66196;BME280;53000;45.182;5.736;2023-06-10T08:40:56;98851.88;;;37.38;28.22
66196;BME280;53000;45.182;5.736;2023-06-10T08:43:33;98854.72;;;36.86;31.89
66196;BME280;53000;45.182;5.736;2023-06-10T08:46:00;98854.53;;;36.66;32.48
66196;BME280;53000;45.182;5.736;2023-06-10T08:48:29;98855.44;;;36.58;32.31
66196;BME280;53000;45.182;5.736;2023-06-10T08:50:56;98849.22;;;36.77;30.56
66196;BME280;53000;45.182;5.736;2023-06-10T08:53:23;98848.03;;;36.90;31.58
66196;BME280;53000;45.182;5.736;2023-06-10T08:55:51;98848.72;;;36.87;30.95
66196;BME280;53000;45.182;5.736;2023-06-10T08:58:20;98844.88;;;36.79;30.67
66196;BME280;53000;45.182;5.736;2023-06-10T09:00:46;98838.84;;;36.93;33.06
66196;BME280;53000;45.182;5.736;2023-06-10T09:03:11;98838.97;;;37.09;31.89
66196;BME280;53000;45.182;5.736;2023-06-10T09:05:37;98840.09;;;37.20;31.78
66196;BME280;53000;45.182;5.736;2023-06-10T09:08:04;98835.53;;;37.16;30.68
66196;BME280;53000;45.182;5.736;2023-06-10T09:10:30;98834.25;;;36.89;29.91
66196;BME280;53000;45.182;5.736;2023-06-10T09:12:56;98836.88;;;36.69;30.69
66196;BME280;53000;45.182;5.736;2023-06-10T09:15:22;98837.25;;;36.55;32.27
66196;BME280;53000;45.182;5.736;2023-06-10T09:17:47;98830.31;;;36.16;31.48
66196;BME280;53000;45.182;5.736;2023-06-10T09:20:13;98839.13;;;35.48;32.24
66196;BME280;53000;45.182;5.736;2023-06-10T09:22:38;98830.50;;;35.11;33.29
66196;BME280;53000;45.182;5.736;2023-06-10T09:25:07;98833.38;;;35.02;33.03
66196;BME280;53000;45.182;5.736;2023-06-10T09:27:50;98830.16;;;34.91;33.50
66196;BME280;53000;45.182;5.736;2023-06-10T09:30:25;98824.88;;;34.60;33.08
66196;BME280;53000;45.182;5.736;2023-06-10T09:32:56;98830.31;;;34.35;33.68
66196;BME280;53000;45.182;5.736;2023-06-10T09:35:25;98826.06;;;34.29;33.97
66196;BME280;53000;45.182;5.736;2023-06-10T09:37:58;98819.81;;;34.24;34.29
66196;BME280;53000;45.182;5.736;2023-06-10T09:40:25;98828.09;;;34.11;34.30
66196;BME280;53000;45.182;5.736;2023-06-10T09:42:58;98823.91;;;33.88;34.39
66196;BME280;53000;45.182;5.736;2023-06-10T09:45:29;98818.78;;;33.90;34.97
66196;BME280;53000;45.182;5.736;2023-06-10T09:47:54;98818.78;;;33.90;33.41
66196;BME280;53000;45.182;5.736;2023-06-10T09:50:21;98812.34;;;33.80;34.14
66196;BME280;53000;45.182;5.736;2023-06-10T09:52:46;98817.34;;;33.75;34.75
66196;BME280;53000;45.182;5.736;2023-06-10T09:55:15;98821.66;;;33.64;34.37
66196;BME280;53000;45.182;5.736;2023-06-10T09:57:40;98819.81;;;33.50;34.94
66196;BME280;53000;45.182;5.736;2023-06-10T10:00:09;98813.25;;;33.37;35.01
66196;BME280;53000;45.182;5.736;2023-06-10T10:02:51;98811.94;;;33.26;34.66
66196;BME280;53000;45.182;5.736;2023-06-10T10:05:18;98810.47;;;33.11;34.75
66196;BME280;53000;45.182;5.736;2023-06-10T10:07:44;98811.94;;;33.00;35.41
66196;BME280;53000;45.182;5.736;2023-06-10T10:10:11;98816.38;;;32.92;34.94
66196;BME280;53000;45.182;5.736;2023-06-10T10:12:41;98810.63;;;32.80;35.23
66196;BME280;53000;45.182;5.736;2023-06-10T10:15:08;98807.28;;;32.69;36.07
66196;BME280;53000;45.182;5.736;2023-06-10T10:17:37;98808.63;;;32.63;35.95
66196;BME280;53000;45.182;5.736;2023-06-10T10:20:05;98806.13;;;32.53;35.40
66196;BME280;53000;45.182;5.736;2023-06-10T10:22:39;98802.28;;;32.40;35.82
66196;BME280;53000;45.182;5.736;2023-06-10T10:25:10;98799.78;;;32.38;36.07
66196;BME280;53000;45.182;5.736;2023-06-10T10:27:40;98799.47;;;32.40;35.56
66196;BME280;53000;45.182;5.736;2023-06-10T10:30:11;98791.38;;;32.30;35.93
66196;BME280;53000;45.182;5.736;2023-06-10T10:32:57;98793.03;;;32.31;36.64
66196;BME280;53000;45.182;5.736;2023-06-10T10:35:25;98795.84;;;32.39;36.60
66196;BME280;53000;45.182;5.736;2023-06-10T10:37:54;98795.41;;;32.55;36.38
66196;BME280;53000;45.182;5.736;2023-06-10T10:40:23;98795.44;;;32.64;34.62
66196;BME280;53000;45.182;5.736;2023-06-10T10:42:50;98786.84;;;32.60;34.27
66196;BME280;53000;45.182;5.736;2023-06-10T10:45:17;98789.50;;;32.56;34.80
66196;BME280;53000;45.182;5.736;2023-06-10T10:47:46;98788.50;;;32.61;36.00
66196;BME280;53000;45.182;5.736;2023-06-10T10:50:15;98786.34;;;32.75;35.08
66196;BME280;53000;45.182;5.736;2023-06-10T10:52:51;98773.81;;;32.64;34.09
66196;BME280;53000;45.182;5.736;2023-06-10T10:55:18;98766.91;;;32.53;34.68
66196;BME280;53000;45.182;5.736;2023-06-10T10:57:43;98775.00;;;32.54;35.07
66196;BME280;53000;45.182;5.736;2023-06-10T11:00:10;98773.59;;;32.52;34.76
66196;BME280;53000;45.182;5.736;2023-06-10T11:02:37;98763.06;;;32.49;33.08
66196;BME280;53000;45.182;5.736;2023-06-10T11:05:07;98764.19;;;32.39;34.81
66196;BME280;53000;45.182;5.736;2023-06-10T11:07:34;98765.03;;;32.31;34.41
66196;BME280;53000;45.182;5.736;2023-06-10T11:12:41;98755.94;;;32.25;34.66
66196;BME280;53000;45.182;5.736;2023-06-10T11:15:08;98753.78;;;32.22;34.75
66196;BME280;53000;45.182;5.736;2023-06-10T11:17:33;98753.59;;;32.10;32.57
66196;BME280;53000;45.182;5.736;2023-06-10T11:19:59;98750.56;;;31.97;33.98
66196;BME280;53000;45.182;5.736;2023-06-10T11:22:24;98735.72;;;31.88;34.72
66196;BME280;53000;45.182;5.736;2023-06-10T11:24:50;98744.44;;;31.87;33.62
66196;BME280;53000;45.182;5.736;2023-06-10T11:27:21;98728.13;;;31.80;34.40
66196;BME280;53000;45.182;5.736;2023-06-10T11:30:17;98741.59;;;31.78;33.80
66196;BME280;53000;45.182;5.736;2023-06-10T11:32:43;98744.06;;;31.71;34.27
66196;BME280;53000;45.182;5.736;2023-06-10T11:35:08;98743.88;;;31.67;34.24
66196;BME280;53000;45.182;5.736;2023-06-10T11:37:34;98731.84;;;31.67;34.37
66196;BME280;53000;45.182;5.736;2023-06-10T11:39:59;98732.38;;;31.69;34.20
66196;BME280;53000;45.182;5.736;2023-06-10T11:42:25;98716.22;;;31.66;34.14
66196;BME280;53000;45.182;5.736;2023-06-10T11:44:51;98716.22;;;31.66;33.95
66196;BME280;53000;45.182;5.736;2023-06-10T11:47:17;98722.47;;;31.63;34.30
66196;BME280;53000;45.182;5.736;2023-06-10T11:49:43;98718.69;;;31.67;34.95
66196;BME280;53000;45.182;5.736;2023-06-10T11:52:09;98711.13;;;31.76;34.87
66196;BME280;53000;45.182;5.736;2023-06-10T11:54:34;98714.41;;;31.70;33.92
66196;BME280;53000;45.182;5.736;2023-06-10T11:57:00;98712.28;;;31.67;35.21
66196;BME280;53000;45.182;5.736;2023-06-10T11:59:29;98713.09;;;31.67;34.77
66196;BME280;53000;45.182;5.736;2023-06-10T12:01:54;98702.72;;;31.68;32.32
66196;BME280;53000;45.182;5.736;2023-06-10T12:04:20;98702.72;;;31.68;33.12
66196;BME280;53000;45.182;5.736;2023-06-10T12:06:50;98688.72;;;31.68;33.37
66196;BME280;53000;45.182;5.736;2023-06-10T12:09:24;98692.50;;;31.63;34.38
66196;BME280;53000;45.182;5.736;2023-06-10T12:14:49;98694.50;;;31.40;34.86
66196;BME280;53000;45.182;5.736;2023-06-10T12:17:15;98690.53;;;31.32;34.43
66196;BME280;53000;45.182;5.736;2023-06-10T12:19:40;98691.97;;;31.30;35.40
66196;BME280;53000;45.182;5.736;2023-06-10T12:22:05;98688.38;;;31.29;35.23
66196;BME280;53000;45.182;5.736;2023-06-10T12:24:31;98690.28;;;31.20;34.66
66196;BME280;53000;45.182;5.736;2023-06-10T12:26:56;98690.28;;;31.20;35.18
66196;BME280;53000;45.182;5.736;2023-06-10T12:29:24;98686.72;;;31.28;35.81
66196;BME280;53000;45.182;5.736;2023-06-10T12:32:02;98687.41;;;31.34;35.97
66196;BME280;53000;45.182;5.736;2023-06-10T12:36:55;98679.69;;;31.39;36.40
66196;BME280;53000;45.182;5.736;2023-06-10T12:39:20;98662.91;;;31.39;36.51
66196;BME280;53000;45.182;5.736;2023-06-10T12:41:49;98669.66;;;31.38;37.02
66196;BME280;53000;45.182;5.736;2023-06-10T12:44:16;98663.25;;;31.38;36.24
66196;BME280;53000;45.182;5.736;2023-06-10T12:46:41;98659.94;;;31.36;34.31
66196;BME280;53000;45.182;5.736;2023-06-10T12:49:07;98670.47;;;31.30;34.69
66196;BME280;53000;45.182;5.736;2023-06-10T12:51:32;98672.56;;;31.25;35.99
66196;BME280;53000;45.182;5.736;2023-06-10T12:53:59;98674.84;;;31.23;35.51
66196;BME280;53000;45.182;5.736;2023-06-10T12:56:25;98665.00;;;31.25;35.63
66196;BME280;53000;45.182;5.736;2023-06-10T12:58:50;98653.03;;;31.33;33.38
66196;BME280;53000;45.182;5.736;2023-06-10T13:01:16;98666.53;;;31.40;33.66
66196;BME280;53000;45.182;5.736;2023-06-10T13:03:41;98655.75;;;31.47;34.62
66196;BME280;53000;45.182;5.736;2023-06-10T13:06:06;98654.00;;;31.60;33.20